Time;durP1;ratioP1;P1;durP2;ratioP2;P2;SDS_P1;SDS_P2;PMS_P1;PMS_P2;Temp;Humidity;BMP_temperature;BMP_pressure;BME280_temperature;BME280_humidity;BME280_pressure;Samples;Min_cycle;Max_cycle;Signal;HPM_P1;HPM_P2
2022/08/28 00:00:27;;;;;;;16.77;10.00;;;;;;;;;;5077450;28;20052;-83
2022/08/28 00:02:55;;;;;;;14.05;9.10;;;;;;;;;;5077741;28;20492;-83
2022/08/28 00:05:24;;;;;;;14.05;10.48;;;;;;;;;;5060935;28;20040;-83
2022/08/28 00:07:51;;;;;;;13.52;9.85;;;;;;;;;;5058588;28;20092;-83
2022/08/28 00:10:20;;;;;;;13.20;9.50;;;;;;;;;;5063062;28;20052;-83
2022/08/28 00:12:49;;;;;;;15.60;9.75;;;;;;;;;;5068246;28;20056;-83
2022/08/28 00:15:19;;;;;;;17.95;10.90;;;;;;;;;;5067849;28;20074;-83
2022/08/28 00:17:46;;;;;;;12.52;9.63;;;;;;;;;;5084124;28;20056;-83
2022/08/28 00:20:14;;;;;;;21.23;11.40;;;;;;;;;;5082692;28;20048;-83
2022/08/28 00:22:41;;;;;;;16.20;9.88;;;;;;;;;;5083264;28;20052;-83
2022/08/28 00:25:10;;;;;;;11.57;8.60;;;;;;;;;;5064898;28;20084;-83
2022/08/28 00:27:52;;;;;;;14.65;8.68;;;;;;;;;;5065716;28;20055;-83
2022/08/28 00:30:30;;;;;;;11.07;8.85;;;;;;;;;;5064360;28;20052;-83
2022/08/28 00:32:59;;;;;;;17.88;11.30;;;;;;;;;;5081513;28;20076;-83
2022/08/28 00:35:26;;;;;;;13.02;9.50;;;;;;;;;;5081988;28;20044;-83
2022/08/28 00:37:53;;;;;;;13.13;9.77;;;;;;;;;;5063932;28;20059;-83
2022/08/28 00:40:24;;;;;;;16.58;10.98;;;;;;;;;;5064218;28;20062;-83
2022/08/28 00:42:59;;;;;;;15.45;10.57;;;;;;;;;;5064183;28;20060;-83
2022/08/28 00:45:27;;;;;;;16.08;10.65;;;;;;;;;;5062921;28;20430;-83
2022/08/28 00:47:54;;;;;;;12.02;10.57;;;;;;;;;;5062797;28;20048;-83
2022/08/28 00:50:23;;;;;;;14.65;10.00;;;;;;;;;;5079875;28;20044;-83
2022/08/28 00:52:53;;;;;;;14.80;10.05;;;;;;;;;;5080370;28;20419;-83
2022/08/28 00:55:22;;;;;;;16.88;11.73;;;;;;;;;;5080061;28;20057;-83
2022/08/28 00:57:51;;;;;;;15.98;11.57;;;;;;;;;;5062418;28;20048;-83
2022/08/28 01:00:21;;;;;;;20.92;12.18;;;;;;;;;;5061643;28;20059;-83
2022/08/28 01:02:48;;;;;;;14.32;11.15;;;;;;;;;;5062327;28;20443;-82
2022/08/28 01:05:16;;;;;;;20.75;12.18;;;;;;;;;;5060808;28;20499;-83
2022/08/28 01:07:43;;;;;;;13.20;11.40;;;;;;;;;;5060503;28;20049;-83
2022/08/28 01:10:12;;;;;;;14.95;11.27;;;;;;;;;;5061251;28;20068;-83
2022/08/28 01:12:40;;;;;;;16.85;12.77;;;;;;;;;;5059816;28;20048;-83
2022/08/28 01:15:11;;;;;;;19.73;12.93;;;;;;;;;;5070313;22;20057;-79
2022/08/28 01:17:43;;;;;;;14.93;11.45;;;;;;;;;;5019348;28;20571;-80
2022/08/28 01:20:12;;;;;;;20.45;12.05;;;;;;;;;;5018410;28;20115;-79
2022/08/28 01:23:04;;;;;;;19.92;12.20;;;;;;;;;;5035329;28;20084;-80
2022/08/28 01:25:33;;;;;;;15.48;12.25;;;;;;;;;;5034630;28;20468;-79
2022/08/28 01:28:02;;;;;;;19.45;13.45;;;;;;;;;;5018063;28;20051;-80
2022/08/28 01:30:30;;;;;;;13.63;11.70;;;;;;;;;;5021162;28;20072;-80
2022/08/28 01:32:58;;;;;;;22.63;12.82;;;;;;;;;;5016151;28;20074;-79
2022/08/28 01:35:27;;;;;;;19.35;12.23;;;;;;;;;;5033616;28;20054;-79
2022/08/28 01:37:55;;;;;;;17.15;12.02;;;;;;;;;;5015968;28;20081;-79
2022/08/28 01:40:44;;;;;;;15.88;11.60;;;;;;;;;;5033170;28;20080;-80
2022/08/28 01:43:18;;;;;;;19.05;11.05;;;;;;;;;;5015954;28;20488;-80
2022/08/28 01:45:47;;;;;;;13.80;10.93;;;;;;;;;;5016035;28;20049;-79
2022/08/28 01:48:15;;;;;;;14.80;10.23;;;;;;;;;;5033567;28;20080;-80
2022/08/28 01:50:42;;;;;;;16.83;10.38;;;;;;;;;;5033697;28;20045;-80
2022/08/28 01:53:12;;;;;;;13.77;11.10;;;;;;;;;;5015986;28;20095;-80
2022/08/28 01:55:41;;;;;;;18.38;10.98;;;;;;;;;;5016057;28;20211;-80
2022/08/28 01:58:09;;;;;;;16.70;10.05;;;;;;;;;;5016567;28;20054;-79
2022/08/28 02:00:37;;;;;;;14.02;9.85;;;;;;;;;;5034066;28;20045;-80
2022/08/28 02:03:05;;;;;;;18.50;10.70;;;;;;;;;;5032857;28;20060;-80
2022/08/28 02:05:33;;;;;;;18.80;11.05;;;;;;;;;;5033661;28;20046;-80
2022/08/28 02:08:01;;;;;;;15.07;10.32;;;;;;;;;;5016616;28;20052;-80
2022/08/28 02:10:29;;;;;;;15.30;10.10;;;;;;;;;;5016912;28;20096;-80
2022/08/28 02:12:56;;;;;;;16.48;9.65;;;;;;;;;;5016582;28;20501;-80
2022/08/28 02:15:25;;;;;;;18.73;10.52;;;;;;;;;;5032140;28;20120;-80
2022/08/28 02:17:53;;;;;;;15.45;9.18;;;;;;;;;;5015936;28;20045;-80
2022/08/28 02:20:21;;;;;;;13.45;9.98;;;;;;;;;;5032338;28;20116;-80
2022/08/28 02:22:48;;;;;;;15.40;10.10;;;;;;;;;;5033756;28;20096;-79
2022/08/28 02:25:15;;;;;;;19.13;8.77;;;;;;;;;;5016208;28;20191;-79
2022/08/28 02:27:43;;;;;;;13.00;9.35;;;;;;;;;;5032768;28;20045;-80
2022/08/28 02:30:11;;;;;;;13.88;9.02;;;;;;;;;;5033546;28;20092;-80
2022/08/28 02:32:39;;;;;;;13.63;8.93;;;;;;;;;;5032470;28;20049;-80
2022/08/28 02:35:06;;;;;;;13.68;8.43;;;;;;;;;;5032146;28;20053;-80
2022/08/28 02:37:38;;;;;;;14.45;8.68;;;;;;;;;;5033711;28;20052;-80
2022/08/28 02:40:06;;;;;;;12.30;8.35;;;;;;;;;;5032257;28;20074;-79
2022/08/28 02:42:33;;;;;;;16.45;9.13;;;;;;;;;;5034035;28;20115;-79
2022/08/28 02:45:00;;;;;;;14.20;8.35;;;;;;;;;;5036365;28;20096;-79
2022/08/28 02:47:28;;;;;;;13.18;8.35;;;;;;;;;;5036265;28;20335;-80
2022/08/28 02:49:55;;;;;;;12.15;8.70;;;;;;;;;;5036411;28;20049;-80
2022/08/28 02:52:23;;;;;;;14.80;9.15;;;;;;;;;;5035714;28;20496;-80
2022/08/28 02:54:50;;;;;;;14.68;8.10;;;;;;;;;;5035999;28;20050;-79
2022/08/28 02:57:17;;;;;;;18.67;7.68;;;;;;;;;;5037102;28;20053;-79
2022/08/28 02:59:46;;;;;;;15.73;7.60;;;;;;;;;;5037038;28;20104;-80
2022/08/28 03:02:13;;;;;;;15.48;8.73;;;;;;;;;;5037251;28;20100;-80
2022/08/28 03:04:40;;;;;;;9.55;7.40;;;;;;;;;;5035524;28;20084;-80
2022/08/28 03:07:08;;;;;;;12.02;7.57;;;;;;;;;;5035531;28;20081;-80
2022/08/28 03:09:37;;;;;;;10.60;7.32;;;;;;;;;;5035713;28;20052;-80
2022/08/28 03:12:04;;;;;;;13.13;6.95;;;;;;;;;;5035913;28;20108;-80
2022/08/28 03:14:31;;;;;;;18.50;8.90;;;;;;;;;;5035184;28;20055;-80
2022/08/28 03:17:00;;;;;;;11.15;6.60;;;;;;;;;;5035401;28;20084;-80
2022/08/28 03:19:27;;;;;;;14.63;7.60;;;;;;;;;;5037534;28;20056;-80
2022/08/28 03:21:54;;;;;;;10.88;5.80;;;;;;;;;;5036340;28;20089;-79
2022/08/28 03:24:21;;;;;;;15.00;7.35;;;;;;;;;;5035400;28;20061;-80
2022/08/28 03:26:48;;;;;;;12.63;7.00;;;;;;;;;;5036172;28;20112;-80
2022/08/28 03:29:16;;;;;;;11.00;6.78;;;;;;;;;;5035256;28;20045;-80
2022/08/28 03:31:43;;;;;;;11.02;6.53;;;;;;;;;;5034915;28;20505;-80
2022/08/28 03:34:10;;;;;;;10.48;5.63;;;;;;;;;;5034650;28;20085;-80
2022/08/28 03:36:37;;;;;;;21.83;6.45;;;;;;;;;;5034845;28;20336;-80
2022/08/28 03:39:05;;;;;;;10.85;5.18;;;;;;;;;;5034960;28;20085;-80
2022/08/28 03:41:33;;;;;;;12.40;5.38;;;;;;;;;;5035377;28;20416;-80
2022/08/28 03:44:00;;;;;;;14.55;5.38;;;;;;;;;;5036007;28;20492;-79
2022/08/28 03:46:31;;;;;;;7.05;5.35;;;;;;;;;;5034729;28;20077;-80
2022/08/28 03:48:59;;;;;;;14.30;5.47;;;;;;;;;;5034676;28;20041;-80
2022/08/28 03:51:28;;;;;;;9.77;4.60;;;;;;;;;;5034732;28;20056;-80
2022/08/28 03:53:56;;;;;;;9.52;5.45;;;;;;;;;;5033700;28;20050;-80
2022/08/28 03:56:24;;;;;;;20.10;7.13;;;;;;;;;;5035743;28;20542;-80
2022/08/28 03:58:53;;;;;;;15.13;7.22;;;;;;;;;;5036481;28;20057;-81
2022/08/28 04:01:20;;;;;;;13.45;6.60;;;;;;;;;;5034709;28;20424;-80
2022/08/28 04:03:47;;;;;;;15.60;5.35;;;;;;;;;;5034756;28;20491;-81
2022/08/28 04:06:15;;;;;;;14.18;5.32;;;;;;;;;;5035267;28;20095;-81
2022/08/28 04:08:42;;;;;;;10.90;4.18;;;;;;;;;;5034524;28;20076;-81
2022/08/28 04:11:09;;;;;;;15.93;5.07;;;;;;;;;;5034279;28;20085;-81
2022/08/28 04:13:36;;;;;;;15.35;4.60;;;;;;;;;;5034578;28;20053;-81
2022/08/28 04:16:09;;;;;;;13.90;4.88;;;;;;;;;;5033856;28;20089;-81
2022/08/28 04:18:38;;;;;;;9.75;4.05;;;;;;;;;;5034031;28;20119;-81
2022/08/28 04:21:07;;;;;;;11.77;4.43;;;;;;;;;;5034155;28;20096;-81
2022/08/28 04:23:35;;;;;;;15.45;4.88;;;;;;;;;;5035446;28;20081;-81
2022/08/28 04:26:04;;;;;;;12.82;4.82;;;;;;;;;;5034052;28;20088;-81
2022/08/28 04:28:31;;;;;;;9.48;4.07;;;;;;;;;;5034989;28;20049;-82
2022/08/28 04:30:59;;;;;;;9.18;4.25;;;;;;;;;;5035266;28;20508;-80
2022/08/28 04:33:27;;;;;;;14.90;4.25;;;;;;;;;;5034201;28;20045;-80
2022/08/28 04:35:54;;;;;;;12.82;4.20;;;;;;;;;;5034088;28;20488;-81
2022/08/28 04:38:21;;;;;;;10.02;4.20;;;;;;;;;;5033802;28;20412;-81
2022/08/28 04:40:48;;;;;;;8.57;3.50;;;;;;;;;;5035342;28;20088;-81
2022/08/28 04:43:16;;;;;;;17.35;4.60;;;;;;;;;;5033628;28;20056;-81
2022/08/28 04:45:44;;;;;;;10.18;3.67;;;;;;;;;;5033507;28;20042;-81
2022/08/28 04:48:12;;;;;;;13.05;3.90;;;;;;;;;;5033917;28;20048;-81
2022/08/28 04:50:44;;;;;;;12.05;3.65;;;;;;;;;;5034079;28;20467;-81
2022/08/28 04:53:12;;;;;;;13.63;4.03;;;;;;;;;;5034796;28;20045;-82
2022/08/28 04:55:40;;;;;;;15.65;3.88;;;;;;;;;;5034766;28;20100;-82
2022/08/28 04:58:20;;;;;;;7.78;3.92;;;;;;;;;;5034434;28;20053;-81
2022/08/28 05:00:50;;;;;;;8.80;3.53;;;;;;;;;;5033837;28;20128;-81
2022/08/28 05:03:17;;;;;;;10.48;3.70;;;;;;;;;;5033504;28;20497;-81
2022/08/28 05:05:46;;;;;;;12.43;3.38;;;;;;;;;;5033101;28;20049;-82
2022/08/28 05:08:14;;;;;;;9.13;3.15;;;;;;;;;;5033644;28;20046;-82
2022/08/28 05:10:41;;;;;;;12.60;3.08;;;;;;;;;;5033812;28;20053;-81
2022/08/28 05:13:09;;;;;;;11.20;3.28;;;;;;;;;;5033294;28;20080;-81
2022/08/28 05:15:40;;;;;;;11.20;3.22;;;;;;;;;;5034227;28;20060;-81
2022/08/28 05:18:07;;;;;;;10.98;3.30;;;;;;;;;;5033550;28;20524;-81
2022/08/28 05:20:35;;;;;;;15.48;3.70;;;;;;;;;;5033106;28;20045;-81
2022/08/28 05:23:03;;;;;;;11.05;3.05;;;;;;;;;;5033310;28;20058;-82
2022/08/28 05:25:33;;;;;;;7.50;3.05;;;;;;;;;;5034062;28;20059;-82
2022/08/28 05:28:01;;;;;;;14.40;4.45;;;;;;;;;;5034008;28;20046;-82
2022/08/28 05:30:28;;;;;;;7.85;3.05;;;;;;;;;;5033261;28;20080;-81
2022/08/28 05:32:55;;;;;;;8.77;3.03;;;;;;;;;;5033049;28;20096;-82
2022/08/28 05:35:23;;;;;;;13.40;3.90;;;;;;;;;;5032408;28;20100;-82
2022/08/28 05:37:51;;;;;;;9.85;3.33;;;;;;;;;;5032956;28;20081;-82
2022/08/28 05:40:21;;;;;;;10.35;3.20;;;;;;;;;;5033198;28;20050;-81
2022/08/28 05:42:51;;;;;;;10.65;2.92;;;;;;;;;;5032925;28;20045;-81
2022/08/28 05:45:19;;;;;;;9.30;2.38;;;;;;;;;;5034840;28;20127;-82
2022/08/28 05:47:46;;;;;;;9.68;2.88;;;;;;;;;;5034517;28;20045;-82
2022/08/28 05:50:14;;;;;;;9.02;2.80;;;;;;;;;;5034504;28;20054;-82
2022/08/28 05:52:42;;;;;;;13.80;2.72;;;;;;;;;;5033617;28;20046;-82
2022/08/28 05:55:10;;;;;;;8.27;2.60;;;;;;;;;;5033841;28;20052;-82
2022/08/28 05:57:38;;;;;;;6.80;2.70;;;;;;;;;;5034818;28;20073;-82
2022/08/28 06:00:06;;;;;;;11.50;2.83;;;;;;;;;;5033423;28;20092;-82
2022/08/28 06:02:33;;;;;;;7.43;2.50;;;;;;;;;;5033632;28;20459;-81
2022/08/28 06:05:01;;;;;;;6.20;2.53;;;;;;;;;;5036766;28;20049;-82
2022/08/28 06:07:28;;;;;;;9.63;2.55;;;;;;;;;;5033192;28;20050;-82
2022/08/28 06:09:55;;;;;;;6.32;2.70;;;;;;;;;;5034228;28;20487;-82
2022/08/28 06:12:22;;;;;;;12.70;2.75;;;;;;;;;;5033030;28;20049;-82
2022/08/28 06:14:50;;;;;;;6.45;2.15;;;;;;;;;;5033288;28;20055;-82
2022/08/28 06:17:17;;;;;;;8.60;2.42;;;;;;;;;;5032246;28;20488;-82
2022/08/28 06:19:50;;;;;;;10.00;2.90;;;;;;;;;;5033083;28;20068;-82
2022/08/28 06:22:17;;;;;;;9.93;2.70;;;;;;;;;;5034036;28;20049;-82
2022/08/28 06:24:44;;;;;;;4.82;2.40;;;;;;;;;;5034207;28;20049;-82
2022/08/28 06:27:11;;;;;;;8.05;2.40;;;;;;;;;;5033673;28;20555;-82
2022/08/28 06:29:39;;;;;;;8.80;2.60;;;;;;;;;;5044818;28;20049;-83
2022/08/28 06:32:06;;;;;;;9.43;2.35;;;;;;;;;;5046174;28;20046;-83
2022/08/28 06:34:33;;;;;;;10.10;2.28;;;;;;;;;;5034463;28;20073;-82
2022/08/28 06:37:01;;;;;;;5.20;2.47;;;;;;;;;;5033164;28;20401;-82
2022/08/28 06:39:28;;;;;;;11.00;2.28;;;;;;;;;;5032646;28;20409;-82
2022/08/28 06:41:55;;;;;;;10.32;2.72;;;;;;;;;;5032947;28;20053;-82
2022/08/28 06:44:22;;;;;;;11.32;2.65;;;;;;;;;;5032221;28;20097;-82
2022/08/28 06:46:50;;;;;;;6.00;2.72;;;;;;;;;;5032803;28;20424;-82
2022/08/28 06:49:19;;;;;;;13.85;3.80;;;;;;;;;;5033322;28;20045;-82
2022/08/28 06:51:46;;;;;;;7.50;2.33;;;;;;;;;;5032196;28;20192;-83
2022/08/28 06:54:16;;;;;;;6.72;2.30;;;;;;;;;;5032558;28;20476;-82
2022/08/28 06:56:48;;;;;;;9.15;3.03;;;;;;;;;;5032599;28;20053;-83
2022/08/28 06:59:15;;;;;;;9.23;2.65;;;;;;;;;;5034172;28;20053;-82
2022/08/28 07:01:42;;;;;;;10.20;2.05;;;;;;;;;;5032589;28;20053;-82
2022/08/28 07:04:12;;;;;;;7.18;2.30;;;;;;;;;;5032579;28;20053;-82
2022/08/28 07:06:42;;;;;;;7.00;2.50;;;;;;;;;;5033418;28;20046;-83
2022/08/28 07:09:10;;;;;;;5.13;2.03;;;;;;;;;;5032201;28;20045;-83
2022/08/28 07:11:38;;;;;;;10.68;2.60;;;;;;;;;;5031951;28;20435;-82
2022/08/28 07:14:05;;;;;;;13.68;3.00;;;;;;;;;;5033468;28;20104;-83
2022/08/28 07:16:36;;;;;;;13.68;2.22;;;;;;;;;;5181161;22;20096;-83
2022/08/28 07:19:05;;;;;;;8.07;2.05;;;;;;;;;;5057763;28;20068;-83
2022/08/28 07:21:36;;;;;;;5.93;2.83;;;;;;;;;;5057360;28;20045;-83
2022/08/28 07:24:05;;;;;;;6.90;2.70;;;;;;;;;;5057634;28;20029;-84
2022/08/28 07:26:33;;;;;;;8.75;2.63;;;;;;;;;;5039377;28;20045;-83
2022/08/28 07:29:02;;;;;;;4.13;1.98;;;;;;;;;;5043001;28;20055;-83
2022/08/28 07:31:38;;;;;;;6.30;2.03;;;;;;;;;;5061703;28;20484;-84
2022/08/28 07:34:08;;;;;;;9.27;2.05;;;;;;;;;;5044276;28;20091;-84
2022/08/28 07:36:35;;;;;;;9.07;2.30;;;;;;;;;;5043863;28;20045;-83
2022/08/28 07:39:04;;;;;;;4.90;1.75;;;;;;;;;;5043879;28;20045;-83
2022/08/28 07:41:32;;;;;;;7.13;2.38;;;;;;;;;;5043958;28;20107;-83
2022/08/28 07:46:45;;;;;;;9.13;2.30;;;;;;;;;;5061388;28;20048;-84
2022/08/28 07:49:15;;;;;;;6.65;2.22;;;;;;;;;;5061823;28;20427;-83
2022/08/28 07:51:43;;;;;;;13.20;2.78;;;;;;;;;;5061366;28;20055;-83
2022/08/28 07:54:13;;;;;;;11.20;2.20;;;;;;;;;;5044574;28;20041;-84
2022/08/28 07:56:44;;;;;;;11.45;2.30;;;;;;;;;;5044119;28;20076;-83
2022/08/28 07:59:11;;;;;;;8.68;2.70;;;;;;;;;;5061569;28;20462;-84
2022/08/28 08:01:45;;;;;;;8.02;2.22;;;;;;;;;;5044586;28;20566;-84
2022/08/28 08:04:13;;;;;;;8.40;2.50;;;;;;;;;;5043758;28;20045;-83
2022/08/28 08:06:40;;;;;;;7.90;2.40;;;;;;;;;;5043019;28;20107;-84
2022/08/28 08:09:09;;;;;;;6.80;2.05;;;;;;;;;;5043132;28;20041;-84
2022/08/28 08:11:36;;;;;;;16.63;2.92;;;;;;;;;;5060467;28;20124;-83
2022/08/28 08:14:04;;;;;;;10.88;2.40;;;;;;;;;;5059070;28;20076;-83
2022/08/28 08:16:37;;;;;;;15.13;2.65;;;;;;;;;;5040912;28;20057;-85
2022/08/28 08:19:08;;;;;;;5.53;1.90;;;;;;;;;;5058845;28;20041;-84
2022/08/28 08:21:36;;;;;;;6.88;2.25;;;;;;;;;;5041861;28;20098;-84
2022/08/28 08:24:04;;;;;;;6.30;2.13;;;;;;;;;;5042010;28;20080;-84
2022/08/28 08:26:31;;;;;;;10.70;2.20;;;;;;;;;;5041778;28;20079;-84
2022/08/28 08:28:59;;;;;;;6.60;2.25;;;;;;;;;;5059548;28;20419;-84
2022/08/28 08:31:28;;;;;;;8.80;2.47;;;;;;;;;;5042212;28;20616;-84
2022/08/28 08:33:56;;;;;;;6.93;2.42;;;;;;;;;;5059887;28;20053;-84
2022/08/28 08:36:25;;;;;;;7.95;2.20;;;;;;;;;;5060163;28;20053;-84
2022/08/28 08:38:55;;;;;;;9.68;2.40;;;;;;;;;;5042279;28;20053;-85
2022/08/28 08:41:26;;;;;;;;;;;;;;;;;;5040316;28;20498;-84
2022/08/28 08:43:59;;;;;;;10.20;2.90;;;;;;;;;;5056722;28;19951;-85
2022/08/28 08:46:46;;;;;;;9.85;2.95;;;;;;;;;;5042248;28;20053;-84
2022/08/28 08:49:19;;;;;;;9.32;2.90;;;;;;;;;;5026708;28;20459;-84
2022/08/28 08:52:08;;;;;;;11.25;2.60;;;;;;;;;;5041649;28;20456;-84
2022/08/28 08:54:39;;;;;;;10.05;3.03;;;;;;;;;;5027015;28;20114;-84
2022/08/28 08:57:09;;;;;;;11.18;2.50;;;;;;;;;;5042033;28;20107;-84
2022/08/28 08:59:37;;;;;;;9.15;2.80;;;;;;;;;;5060307;28;20045;-85
2022/08/28 09:02:10;;;;;;;7.93;2.70;;;;;;;;;;5041531;28;20049;-85
2022/08/28 09:04:46;;;;;;;8.13;2.90;;;;;;;;;;5060049;28;20131;-84
2022/08/28 09:07:43;;;;;;;11.07;3.53;;;;;;;;;;5040147;28;20520;-83
2022/08/28 09:10:12;;;;;;;12.10;3.03;;;;;;;;;;5043601;28;20087;-84
2022/08/28 09:12:51;;;;;;;8.57;2.80;;;;;;;;;;5042280;28;20053;-84
2022/08/28 09:15:25;;;;;;;4.85;2.28;;;;;;;;;;5041116;28;20103;-85
2022/08/28 09:17:55;;;;;;;5.63;2.65;;;;;;;;;;5040259;28;20049;-84
2022/08/28 09:20:27;;;;;;;8.98;2.92;;;;;;;;;;5043379;28;20541;-85
2022/08/28 09:22:59;;;;;;;9.70;3.10;;;;;;;;;;5047708;28;20049;-85
2022/08/28 09:25:43;;;;;;;7.68;2.92;;;;;;;;;;5049217;28;20072;-84
2022/08/28 09:28:16;;;;;;;12.60;3.80;;;;;;;;;;5049569;28;20064;-85
2022/08/28 09:30:44;;;;;;;6.80;2.60;;;;;;;;;;5046490;28;20495;-85
2022/08/28 09:33:11;;;;;;;8.25;3.20;;;;;;;;;;5061386;28;20091;-86
2022/08/28 09:35:38;;;;;;;7.70;3.15;;;;;;;;;;5043658;28;20072;-85
2022/08/28 09:38:19;;;;;;;6.72;2.83;;;;;;;;;;5042331;28;20052;-83
2022/08/28 09:43:34;;;;;;;10.30;2.90;;;;;;;;;;5060280;28;20049;-82
2022/08/28 09:46:06;;;;;;;6.68;2.85;;;;;;;;;;5042092;28;20110;-85
2022/08/28 09:48:37;;;;;;;6.22;2.78;;;;;;;;;;5050733;28;20049;-85
2022/08/28 09:51:25;;;;;;;7.75;3.03;;;;;;;;;;5057762;28;20499;-84
2022/08/28 09:53:53;;;;;;;7.43;2.95;;;;;;;;;;5036050;28;20045;-85
2022/08/28 09:56:20;;;;;;;10.18;2.97;;;;;;;;;;5036138;28;20095;-84
2022/08/28 09:58:53;;;;;;;7.72;2.75;;;;;;;;;;5037136;28;20476;-85
2022/08/28 10:01:37;;;;;;;4.88;2.75;;;;;;;;;;5040074;28;20045;-85
2022/08/28 10:04:19;;;;;;;8.45;2.85;;;;;;;;;;5040793;28;20463;-85
2022/08/28 10:07:03;;;;;;;7.13;2.72;;;;;;;;;;5058579;28;20397;-84
2022/08/28 10:09:39;;;;;;;6.03;2.83;;;;;;;;;;5058937;28;20049;-85
2022/08/28 10:12:39;;;;;;;7.13;3.05;;;;;;;;;;5041007;28;20118;-85
2022/08/28 10:15:10;;;;;;;7.75;3.10;;;;;;;;;;5039530;28;20072;-83
2022/08/28 10:18:12;;;;;;;7.45;3.42;;;;;;;;;;5040682;28;20061;-85
2022/08/28 10:20:48;;;;;;;4.72;3.08;;;;;;;;;;4976545;28;20058;-84
2022/08/28 10:23:34;;;;;;;6.47;2.88;;;;;;;;;;5031934;28;20056;-85
2022/08/28 10:26:10;;;;;;;4.60;2.63;;;;;;;;;;5056528;28;20072;-85
2022/08/28 10:28:46;;;;;;;9.40;2.60;;;;;;;;;;5040603;28;20080;-85
2022/08/28 10:31:18;;;;;;;7.93;2.80;;;;;;;;;;5039222;28;20045;-84
2022/08/28 10:33:49;;;;;;;10.25;3.00;;;;;;;;;;5039851;28;20411;-83
2022/08/28 10:36:20;;;;;;;5.05;2.67;;;;;;;;;;5039516;28;20490;-86
2022/08/28 10:39:21;;;;;;;7.03;2.55;;;;;;;;;;5041316;28;20052;-84
2022/08/28 10:41:57;;;;;;;6.75;2.90;;;;;;;;;;5039506;28;20049;-85
2022/08/28 10:44:43;;;;;;;8.27;3.20;;;;;;;;;;5039141;28;20045;-83
2022/08/28 10:47:12;;;;;;;3.92;2.45;;;;;;;;;;5038485;28;20057;-83
2022/08/28 10:49:44;;;;;;;9.02;3.20;;;;;;;;;;5038960;28;20080;-82
2022/08/28 10:52:26;;;;;;;5.47;2.80;;;;;;;;;;5039105;28;20044;-84
2022/08/28 10:55:02;;;;;;;6.07;3.05;;;;;;;;;;5038779;28;20326;-85
2022/08/28 10:57:33;;;;;;;5.32;2.80;;;;;;;;;;5039369;28;20569;-84
2022/08/28 11:00:13;;;;;;;11.13;3.17;;;;;;;;;;5039124;28;20068;-84
2022/08/28 11:02:41;;;;;;;8.35;3.03;;;;;;;;;;5038349;28;20041;-84
2022/08/28 11:05:09;;;;;;;17.48;3.28;;;;;;;;;;5042100;28;20049;-85
2022/08/28 11:07:39;;;;;;;11.93;3.40;;;;;;;;;;5041835;28;20045;-85
2022/08/28 11:10:26;;;;;;;6.88;3.00;;;;;;;;;;5041824;28;20490;-83
2022/08/28 11:12:53;;;;;;;7.40;2.72;;;;;;;;;;5042720;28;20075;-84
2022/08/28 11:15:26;;;;;;;5.68;2.83;;;;;;;;;;5041367;28;20084;-86
2022/08/28 11:18:14;;;;;;;8.60;3.40;;;;;;;;;;5059482;28;20519;-84
2022/08/28 11:20:44;;;;;;;5.32;3.00;;;;;;;;;;5042829;28;20052;-84
2022/08/28 11:23:17;;;;;;;6.75;2.72;;;;;;;;;;5045066;28;20045;-85
2022/08/28 11:25:49;;;;;;;6.20;2.78;;;;;;;;;;5043586;28;20049;-84
2022/08/28 11:28:21;;;;;;;5.10;2.97;;;;;;;;;;5044849;28;20079;-86
2022/08/28 11:31:11;;;;;;;8.55;3.08;;;;;;;;;;5053216;28;20056;-85
2022/08/28 11:33:57;;;;;;;5.28;2.92;;;;;;;;;;5046449;28;20064;-84
2022/08/28 11:36:27;;;;;;;4.60;2.60;;;;;;;;;;5043239;28;20052;-85
2022/08/28 11:38:54;;;;;;;6.00;2.85;;;;;;;;;;5043512;28;20052;-84
2022/08/28 11:41:32;;;;;;;5.55;2.97;;;;;;;;;;5044875;28;20098;-83
2022/08/28 11:44:09;;;;;;;5.85;2.85;;;;;;;;;;5042726;28;20087;-83
2022/08/28 11:46:39;;;;;;;7.60;3.13;;;;;;;;;;5043430;28;20049;-85
2022/08/28 11:49:25;;;;;;;8.77;3.58;;;;;;;;;;5040743;28;20079;-84
2022/08/28 11:52:11;;;;;;;7.30;2.90;;;;;;;;;;5057548;28;20106;-84
2022/08/28 11:54:57;;;;;;;9.48;3.00;;;;;;;;;;5039504;28;20045;-84
2022/08/28 11:57:24;;;;;;;9.98;3.03;;;;;;;;;;5039890;28;20069;-84
2022/08/28 12:00:00;;;;;;;7.35;3.03;;;;;;;;;;5040153;28;20083;-84
2022/08/28 12:02:43;;;;;;;7.95;3.08;;;;;;;;;;5039545;28;20077;-84
2022/08/28 12:05:31;;;;;;;5.25;2.75;;;;;;;;;;5039024;28;20495;-84
2022/08/28 12:07:59;;;;;;;9.77;3.05;;;;;;;;;;5042182;28;20045;-85
2022/08/28 12:10:30;;;;;;;7.68;3.15;;;;;;;;;;5041755;28;20447;-84
2022/08/28 12:12:57;;;;;;;5.65;2.72;;;;;;;;;;5060091;28;20094;-86
2022/08/28 12:15:31;;;;;;;3.70;2.45;;;;;;;;;;5042167;28;20052;-85
2022/08/28 12:18:18;;;;;;;4.55;2.08;;;;;;;;;;5044681;28;20415;-84
2022/08/28 12:21:05;;;;;;;6.72;2.80;;;;;;;;;;5014119;28;20056;-85
2022/08/28 12:23:35;;;;;;;6.50;2.85;;;;;;;;;;5044065;28;20099;-84
2022/08/28 12:26:05;;;;;;;5.25;2.63;;;;;;;;;;5043773;28;20048;-85
2022/08/28 12:28:38;;;;;;;7.78;2.90;;;;;;;;;;5041338;28;20045;-85
2022/08/28 12:31:05;;;;;;;8.05;3.15;;;;;;;;;;5040093;28;20071;-85
2022/08/28 12:33:51;;;;;;;7.72;3.13;;;;;;;;;;5039456;28;20064;-84
2022/08/28 12:36:25;;;;;;;4.65;2.58;;;;;;;;;;5039322;28;20064;-86
2022/08/28 12:38:53;;;;;;;6.30;2.50;;;;;;;;;;5039152;28;20416;-84
2022/08/28 12:41:23;;;;;;;8.02;2.65;;;;;;;;;;5039414;28;20060;-85
2022/08/28 12:43:53;;;;;;;9.52;3.00;;;;;;;;;;5039252;28;20076;-85
2022/08/28 12:46:25;;;;;;;5.55;2.80;;;;;;;;;;5038831;28;20083;-85
2022/08/28 12:48:54;;;;;;;3.58;2.80;;;;;;;;;;5038409;28;20049;-84
2022/08/28 12:51:23;;;;;;;4.07;2.83;;;;;;;;;;5056795;28;20045;-84
2022/08/28 12:53:55;;;;;;;6.28;2.53;;;;;;;;;;5039301;28;20040;-84
2022/08/28 12:56:23;;;;;;;6.40;2.80;;;;;;;;;;5038707;28;20076;-84
2022/08/28 12:58:50;;;;;;;5.20;2.83;;;;;;;;;;5038338;28;20132;-84
2022/08/28 13:01:21;;;;;;;6.25;2.70;;;;;;;;;;5038447;28;20482;-85
2022/08/28 13:03:50;;;;;;;7.25;3.00;;;;;;;;;;5056857;28;20048;-85
2022/08/28 13:06:28;;;;;;;7.43;2.60;;;;;;;;;;5038444;28;20557;-84
2022/08/28 13:09:07;;;;;;;5.68;2.67;;;;;;;;;;5056179;28;20049;-83
2022/08/28 13:11:36;;;;;;;6.22;2.60;;;;;;;;;;5072505;28;20418;-86
2022/08/28 13:14:04;;;;;;;5.50;2.95;;;;;;;;;;5054804;28;20092;-83
2022/08/28 13:16:35;;;;;;;7.55;2.75;;;;;;;;;;5044105;22;20520;-88
2022/08/28 13:19:10;;;;;;;6.50;2.45;;;;;;;;;;5037677;28;20306;-89
2022/08/28 13:21:46;;;;;;;4.70;2.75;;;;;;;;;;5037329;28;20174;-89
2022/08/28 13:24:37;;;;;;;5.78;2.65;;;;;;;;;;5037218;28;20501;-90
2022/08/28 13:27:07;;;;;;;6.68;2.45;;;;;;;;;;5054507;28;20092;-90
2022/08/28 13:29:35;;;;;;;6.18;3.10;;;;;;;;;;5037406;28;20488;-89
2022/08/28 13:32:05;;;;;;;4.15;2.40;;;;;;;;;;5036939;28;20080;-91
2022/08/28 13:34:35;;;;;;;2.97;2.35;;;;;;;;;;5055352;28;20049;-90
2022/08/28 13:37:04;;;;;;;3.33;2.33;;;;;;;;;;5036683;28;20060;-87
2022/08/28 13:39:41;;;;;;;5.43;2.63;;;;;;;;;;5054839;28;20485;-90
2022/08/28 13:42:13;;;;;;;6.15;2.90;;;;;;;;;;5037107;28;20080;-92
2022/08/28 13:44:47;;;;;;;4.50;2.90;;;;;;;;;;5038056;28;20528;-91
2022/08/28 13:47:15;;;;;;;6.05;2.55;;;;;;;;;;5037201;28;20044;-89
2022/08/28 13:49:42;;;;;;;5.55;2.30;;;;;;;;;;5037433;28;20056;-90
2022/08/28 13:52:09;;;;;;;8.43;2.60;;;;;;;;;;5036752;28;20118;-92
2022/08/28 13:54:37;;;;;;;5.57;2.90;;;;;;;;;;5037209;28;20433;-92
2022/08/28 13:57:10;;;;;;;5.38;2.63;;;;;;;;;;5037458;28;20045;-89
2022/08/28 13:59:37;;;;;;;5.03;2.80;;;;;;;;;;5036885;28;20103;-90
2022/08/28 14:04:51;;;;;;;3.53;2.47;;;;;;;;;;5054153;28;20055;-90
2022/08/28 14:07:19;;;;;;;9.85;2.53;;;;;;;;;;5036919;28;20475;-91
2022/08/28 14:09:47;;;;;;;6.20;2.58;;;;;;;;;;5036785;28;20128;-88
2022/08/28 14:12:18;;;;;;;6.03;2.53;;;;;;;;;;5037280;28;20507;-89
2022/08/28 14:14:47;;;;;;;5.13;2.28;;;;;;;;;;5053960;28;20139;-91
2022/08/28 14:17:14;;;;;;;5.75;2.30;;;;;;;;;;5032725;28;20137;-90
2022/08/28 14:19:41;;;;;;;5.65;2.50;;;;;;;;;;5034187;28;20092;-92
2022/08/28 14:22:08;;;;;;;4.85;2.60;;;;;;;;;;5033097;28;20148;-91
2022/08/28 14:24:36;;;;;;;3.97;2.55;;;;;;;;;;5032749;28;20149;-90
2022/08/28 14:27:03;;;;;;;5.57;2.55;;;;;;;;;;5032614;28;20135;-89
2022/08/28 14:29:30;;;;;;;7.72;2.67;;;;;;;;;;5033767;28;20107;-90
2022/08/28 14:31:58;;;;;;;6.13;2.97;;;;;;;;;;5032942;28;20077;-88
2022/08/28 14:34:26;;;;;;;4.65;2.50;;;;;;;;;;5033815;28;20159;-88
2022/08/28 14:36:56;;;;;;;4.72;2.72;;;;;;;;;;5037787;28;20120;-88
2022/08/28 14:39:24;;;;;;;8.10;2.58;;;;;;;;;;5039200;28;20084;-90
2022/08/28 14:41:52;;;;;;;10.15;2.42;;;;;;;;;;5037940;28;20077;-89
2022/08/28 14:44:20;;;;;;;7.32;2.67;;;;;;;;;;5037632;28;20076;-87
2022/08/28 14:46:48;;;;;;;3.67;2.70;;;;;;;;;;5036501;28;20049;-89
2022/08/28 14:49:16;;;;;;;3.88;2.25;;;;;;;;;;5036471;28;20137;-85
2022/08/28 14:51:44;;;;;;;6.35;2.92;;;;;;;;;;5036544;28;20124;-88
2022/08/28 14:54:13;;;;;;;6.53;2.47;;;;;;;;;;5036327;28;20045;-91
2022/08/28 14:56:42;;;;;;;4.22;2.38;;;;;;;;;;5036354;28;20472;-90
2022/08/28 14:59:10;;;;;;;4.72;2.50;;;;;;;;;;5036455;28;20087;-89
2022/08/28 15:01:45;;;;;;;5.80;2.40;;;;;;;;;;5037718;28;20045;-90
2022/08/28 15:04:14;;;;;;;3.50;2.58;;;;;;;;;;5036408;28;20292;-87